Terminal Aerodrome Forecast
Issued by NWS

Home | Current Version | Previous Version | Text Only | Print | Product List | Glossary On
Versions: 1 2 3 4 5 6 7 8 9 10 11 12 13
000
FTUS43 KDTX 041127
TAFMBS
TAF
KMBS 041127Z 0412/0512 23013KT P6SM OVC080
      TEMPO 0412/0416 3SM -RA SCT025 OVC040
     FM041600 30013KT P6SM BKN040
     FM042200 04008KT P6SM SCT080 BKN250
     FM050800 09005KT P6SM OVC100=

USA.gov is the U.S. government's official web portal to all federal, state and local government web resources and services.